Time;durP1;ratioP1;P1;durP2;ratioP2;P2;SDS_P1;SDS_P2;PMS_P1;PMS_P2;Temp;Humidity;BMP_temperature;BMP_pressure;BME280_temperature;BME280_humidity;BME280_pressure;Samples;Min_cycle;Max_cycle;Signal;HPM_P1;HPM_P2
2022/06/07 00:00:42;;;;;;;6.93;4.57;;;13.50;96.20;;;;;;2068454;28;20034;-92
2022/06/07 00:02:03;;;;;;;7.57;4.43;;;13.50;96.20;;;;;;2067330;28;20026;-94
2022/06/07 00:03:22;;;;;;;5.57;4.00;;;13.50;96.20;;;;;;2063374;28;20044;-92
2022/06/07 00:04:42;;;;;;;6.00;4.28;;;13.50;96.30;;;;;;2051948;28;20043;-93
2022/06/07 00:06:02;;;;;;;5.80;4.25;;;13.50;96.50;;;;;;2065095;28;20121;-94
2022/06/07 00:07:24;;;;;;;5.67;4.10;;;13.50;96.30;;;;;;2063272;28;20030;-93
2022/06/07 00:08:43;;;;;;;6.43;4.63;;;13.50;96.30;;;;;;2084214;28;20291;-94
2022/06/07 00:10:04;;;;;;;7.03;4.32;;;13.50;96.30;;;;;;2065881;28;20117;-94
2022/06/07 00:11:23;;;;;;;;;;;13.50;96.30;;;;;;2081165;28;20048;-94
2022/06/07 00:12:42;;;;;;;6.03;4.30;;;13.50;96.20;;;;;;2080902;28;19956;-93
2022/06/07 00:14:02;;;;;;;6.30;4.63;;;13.50;96.20;;;;;;2086110;28;20076;-94
2022/06/07 00:15:21;;;;;;;6.05;4.68;;;13.60;96.20;;;;;;2073208;28;20038;-93
2022/06/07 00:16:40;;;;;;;6.43;4.55;;;13.60;96.50;;;;;;2080059;28;20033;-93
2022/06/07 00:18:00;;;;;;;6.45;5.10;;;13.60;96.50;;;;;;2087325;28;20036;-93
2022/06/07 00:19:20;;;;;;;10.80;5.80;;;13.60;96.30;;;;;;2091440;28;20025;-94
2022/06/07 00:20:42;;;;;;;7.82;6.10;;;13.60;96.30;;;;;;2081356;28;20053;-94
2022/06/07 00:22:03;;;;;;;7.93;6.07;;;13.60;96.30;;;;;;2087229;28;20041;-93
2022/06/07 00:23:22;;;;;;;8.10;5.70;;;13.60;96.30;;;;;;2081297;28;20033;-92
2022/06/07 00:24:41;;;;;;;7.60;5.65;;;13.60;96.30;;;;;;2078773;28;20029;-95
2022/06/07 00:26:01;;;;;;;8.52;6.72;;;13.60;96.30;;;;;;2079123;28;20045;-95
2022/06/07 00:27:21;;;;;;;9.48;6.57;;;13.60;96.30;;;;;;2078047;28;20030;-94
2022/06/07 00:28:41;;;;;;;8.57;6.57;;;13.60;96.30;;;;;;2078780;28;20124;-94
2022/06/07 00:30:01;;;;;;;9.63;7.38;;;13.60;96.30;;;;;;2075225;28;20034;-93
2022/06/07 00:31:20;;;;;;;7.95;6.38;;;13.60;96.40;;;;;;2079742;28;20471;-93
2022/06/07 00:32:41;;;;;;;8.60;6.35;;;13.60;96.30;;;;;;2090152;28;20463;-94
2022/06/07 00:34:01;;;;;;;9.98;6.93;;;13.60;96.40;;;;;;2085632;28;20154;-94
2022/06/07 00:35:21;;;;;;;8.10;6.53;;;13.60;96.40;;;;;;2074278;28;20038;-95
2022/06/07 00:36:41;;;;;;;8.32;6.88;;;13.60;96.40;;;;;;2069773;28;20030;-95
2022/06/07 00:38:00;;;;;;;13.00;8.65;;;13.60;96.40;;;;;;2061499;28;20030;-95
2022/06/07 00:39:19;;;;;;;9.68;7.80;;;13.60;96.40;;;;;;2076399;28;20029;-94
2022/06/07 00:40:39;;;;;;;10.77;8.27;;;13.70;96.40;;;;;;2070796;28;20030;-95
2022/06/07 00:41:58;;;;;;;10.15;8.25;;;13.60;96.40;;;;;;2061065;28;20349;-94
2022/06/07 00:43:22;;;;;;;10.32;8.45;;;13.70;96.40;;;;;;2063839;28;20037;-93
2022/06/07 00:44:44;;;;;;;9.05;7.57;;;13.60;96.40;;;;;;2084641;28;20041;-93
2022/06/07 00:46:07;;;;;;;10.07;8.18;;;13.60;96.40;;;;;;2080699;28;20466;-93
2022/06/07 00:47:28;;;;;;;9.82;7.80;;;13.70;96.50;;;;;;2079335;28;20049;-94
2022/06/07 00:48:47;;;;;;;10.98;8.23;;;13.70;96.50;;;;;;2087713;28;20036;-94
2022/06/07 00:50:10;;;;;;;10.52;8.55;;;13.70;96.50;;;;;;2074307;28;20472;-94
2022/06/07 00:51:30;;;;;;;10.77;8.48;;;13.70;96.50;;;;;;2081222;28;20029;-95
2022/06/07 00:52:49;;;;;;;11.82;8.70;;;13.70;96.50;;;;;;2086750;28;20057;-94
2022/06/07 00:54:08;;;;;;;10.50;8.25;;;13.60;96.40;;;;;;2086681;28;20478;-93
2022/06/07 00:55:27;;;;;;;11.00;8.10;;;13.70;96.50;;;;;;2080055;28;20045;-94
2022/06/07 00:56:47;;;;;;;12.18;8.82;;;13.70;96.50;;;;;;2075003;28;20050;-95
2022/06/07 00:58:06;;;;;;;12.40;9.93;;;13.70;96.50;;;;;;2085047;28;20037;-93
2022/06/07 00:59:25;;;;;;;12.95;9.77;;;13.70;96.50;;;;;;2089840;28;20469;-93
2022/06/07 01:00:45;;;;;;;12.27;9.63;;;13.70;96.50;;;;;;2095638;28;20033;-94
2022/06/07 01:02:05;;;;;;;12.93;9.18;;;13.70;96.50;;;;;;2089948;28;20029;-93
2022/06/07 01:03:25;;;;;;;15.40;10.35;;;13.70;96.50;;;;;;2081925;28;20042;-96
2022/06/07 01:04:45;;;;;;;14.77;10.93;;;13.70;96.50;;;;;;2077864;28;20029;-95
2022/06/07 01:11:06;;;;;;;13.80;10.23;;;13.70;96.50;;;;;;2081830;28;20045;-93
2022/06/07 01:12:26;;;;;;;13.60;10.10;;;13.70;96.50;;;;;;2080831;28;20455;-94
2022/06/07 01:13:44;;;;;;;14.40;10.30;;;13.70;96.50;;;;;;2081593;28;20037;-95
2022/06/07 01:15:05;;;;;;;12.32;10.10;;;13.70;96.50;;;;;;2077978;28;20037;-93
2022/06/07 01:16:25;;;;;;;13.38;10.02;;;13.70;96.50;;;;;;2076050;28;20045;-94
2022/06/07 01:17:44;;;;;;;14.15;10.07;;;13.70;96.50;;;;;;2071114;28;20120;-95
2022/06/07 01:19:03;;;;;;;15.20;11.15;;;13.70;96.50;;;;;;2077135;28;20045;-94
2022/06/07 01:20:22;;;;;;;15.40;10.93;;;13.70;96.60;;;;;;2081502;28;20029;-94
2022/06/07 01:21:43;;;;;;;16.65;11.85;;;13.70;96.60;;;;;;2078486;28;20069;-93
2022/06/07 01:23:02;;;;;;;15.25;11.40;;;13.70;96.60;;;;;;2072036;28;20508;-95
2022/06/07 01:24:21;;;;;;;16.42;11.18;;;13.70;96.60;;;;;;2077214;28;20033;-94
2022/06/07 01:25:40;;;;;;;13.27;10.50;;;13.80;96.60;;;;;;2083933;28;20519;-94
2022/06/07 01:27:01;;;;;;;13.75;10.02;;;13.80;96.60;;;;;;2088598;28;20029;-95
2022/06/07 01:28:20;;;;;;;14.10;10.30;;;13.80;96.80;;;;;;2083019;28;20030;-94
2022/06/07 01:29:42;;;;;;;14.18;10.00;;;13.80;96.60;;;;;;2083506;28;20077;-94
2022/06/07 01:31:01;;;;;;;13.85;10.20;;;13.80;96.60;;;;;;2080621;28;20045;-94
2022/06/07 01:32:21;;;;;;;15.07;10.30;;;13.80;96.60;;;;;;2085833;28;20033;-94
2022/06/07 01:33:40;;;;;;;13.50;10.50;;;13.80;96.60;;;;;;2089131;28;20806;-94
2022/06/07 01:35:00;;;;;;;14.02;10.52;;;13.80;96.60;;;;;;2082742;28;20498;-95
2022/06/07 01:36:19;;;;;;;12.88;10.15;;;13.80;96.60;;;;;;2087331;28;20037;-93
2022/06/07 01:37:38;;;;;;;13.52;10.25;;;13.80;96.60;;;;;;2091730;28;20037;-92
2022/06/07 01:42:15;;;;;;;13.77;10.07;;;13.80;96.60;;;;;;2092032;28;20123;-94
2022/06/07 01:43:34;;;;;;;12.90;9.95;;;13.80;96.60;;;;;;2083112;28;20033;-95
2022/06/07 01:44:53;;;;;;;13.35;10.57;;;13.80;96.60;;;;;;2080273;28;20504;-94
2022/06/07 01:46:13;;;;;;;15.43;11.43;;;13.80;96.60;;;;;;2089638;28;20033;-93
2022/06/07 01:47:34;;;;;;;14.98;11.32;;;13.80;96.60;;;;;;2082438;28;20025;-93
2022/06/07 01:48:53;;;;;;;15.60;11.10;;;13.80;96.60;;;;;;2088372;28;20068;-93
2022/06/07 01:50:12;;;;;;;14.27;10.27;;;13.80;96.60;;;;;;2096301;28;20032;-91
2022/06/07 01:51:32;;;;;;;14.35;10.63;;;13.80;96.60;;;;;;2083204;28;20026;-91
2022/06/07 01:52:51;;;;;;;16.20;11.02;;;13.80;96.60;;;;;;2091735;28;20494;-91
2022/06/07 01:54:12;;;;;;;14.02;11.45;;;13.80;96.60;;;;;;2097506;28;20116;-90
2022/06/07 01:55:32;;;;;;;15.07;11.02;;;13.80;96.60;;;;;;2096948;28;20037;-90
2022/06/07 01:56:51;;;;;;;13.55;10.57;;;13.80;96.60;;;;;;2100478;28;20033;-91
2022/06/07 01:58:11;;;;;;;16.27;10.27;;;13.80;96.60;;;;;;2084388;28;20037;-90
2022/06/07 01:59:30;;;;;;;12.95;10.38;;;13.80;96.70;;;;;;2088123;28;20037;-90
2022/06/07 02:00:53;;;;;;;14.02;10.70;;;13.80;96.70;;;;;;2089745;28;20112;-90
2022/06/07 02:02:13;;;;;;;13.50;10.45;;;13.80;96.70;;;;;;2097265;28;20108;-90
2022/06/07 02:03:33;;;;;;;14.05;10.52;;;13.80;96.70;;;;;;2086446;28;20471;-90
2022/06/07 02:04:52;;;;;;;13.05;10.55;;;13.80;96.70;;;;;;2096752;28;20028;-91
2022/06/07 02:06:12;;;;;;;15.50;10.73;;;13.80;96.70;;;;;;2091283;28;20033;-89
2022/06/07 02:07:32;;;;;;;13.88;10.48;;;13.80;96.70;;;;;;2081362;28;20025;-89
2022/06/07 02:08:51;;;;;;;13.95;10.40;;;13.80;96.70;;;;;;2092856;28;20059;-89
2022/06/07 02:10:10;;;;;;;17.23;10.50;;;13.80;96.80;;;;;;2097268;28;20032;-89
2022/06/07 02:11:29;;;;;;;14.15;10.70;;;13.80;96.80;;;;;;2089406;28;20088;-90
2022/06/07 02:12:49;;;;;;;14.35;10.80;;;13.80;96.80;;;;;;2096548;28;20036;-90
2022/06/07 02:14:08;;;;;;;15.05;10.65;;;13.80;96.80;;;;;;2088720;28;20037;-90
2022/06/07 02:15:27;;;;;;;12.98;10.82;;;13.80;96.80;;;;;;2083271;28;20045;-89
2022/06/07 02:16:46;;;;;;;16.08;11.75;;;13.80;96.80;;;;;;2084780;28;20458;-89
2022/06/07 02:18:06;;;;;;;16.25;10.85;;;13.80;96.80;;;;;;2085216;28;20037;-89
2022/06/07 02:19:25;;;;;;;14.85;11.27;;;13.80;96.80;;;;;;2085731;28;20033;-90
2022/06/07 02:20:44;;;;;;;17.05;11.70;;;13.80;96.80;;;;;;2093582;28;20036;-90
2022/06/07 02:22:04;;;;;;;15.95;12.02;;;13.80;96.80;;;;;;2090858;28;20482;-90
2022/06/07 02:23:24;;;;;;;15.45;12.73;;;13.80;96.90;;;;;;2096695;28;20029;-89
2022/06/07 02:24:43;;;;;;;16.00;12.13;;;13.80;96.90;;;;;;2099182;28;20064;-89
2022/06/07 02:26:16;;;;;;;16.10;12.23;;;13.80;96.90;;;;;;2089858;28;21377;-90
2022/06/07 02:27:36;;;;;;;15.40;12.43;;;13.80;96.90;;;;;;2100105;28;20028;-90
2022/06/07 02:29:06;;;;;;;17.55;12.73;;;13.80;96.90;;;;;;2078365;28;20503;-89
2022/06/07 02:30:25;;;;;;;16.03;12.73;;;13.80;96.90;;;;;;2088331;28;20028;-91
2022/06/07 02:31:51;;;;;;;18.75;13.77;;;13.80;97.10;;;;;;2084934;28;20264;-90
2022/06/07 02:33:11;;;;;;;20.40;13.80;;;13.80;96.90;;;;;;2094890;28;20028;-89
2022/06/07 02:34:31;;;;;;;17.25;13.68;;;13.80;96.90;;;;;;2072457;28;20045;-90
2022/06/07 02:35:50;;;;;;;16.70;13.50;;;13.80;96.90;;;;;;2085535;28;20044;-90
2022/06/07 02:37:11;;;;;;;17.95;12.90;;;13.80;96.90;;;;;;2074197;28;20265;-90
2022/06/07 02:38:31;;;;;;;16.90;12.98;;;13.80;96.90;;;;;;2066703;28;20050;-89
2022/06/07 02:39:51;;;;;;;18.83;13.90;;;13.80;96.90;;;;;;2063401;28;20042;-90
2022/06/07 02:41:14;;;;;;;16.83;13.00;;;13.80;96.90;;;;;;2084879;28;20033;-90
2022/06/07 02:42:33;;;;;;;16.95;13.05;;;13.70;96.90;;;;;;2082574;28;20364;-90
2022/06/07 02:43:54;;;;;;;16.58;13.07;;;13.70;96.90;;;;;;2074450;28;20033;-90
2022/06/07 02:45:13;;;;;;;16.83;12.85;;;13.70;97.20;;;;;;2074622;28;20030;-90
2022/06/07 02:46:32;;;;;;;18.83;13.63;;;13.70;96.90;;;;;;2084119;28;20029;-90
2022/06/07 02:47:51;;;;;;;18.58;14.00;;;13.70;96.90;;;;;;2086446;28;20399;-90
2022/06/07 02:49:11;;;;;;;18.75;14.43;;;13.70;96.90;;;;;;2085053;28;20060;-89
2022/06/07 02:50:30;;;;;;;19.50;15.20;;;13.70;96.90;;;;;;2075482;28;20034;-89
2022/06/07 02:51:49;;;;;;;20.65;14.80;;;13.70;96.90;;;;;;2076602;28;20033;-90
2022/06/07 02:53:08;;;;;;;18.10;14.38;;;13.70;96.90;;;;;;2083118;28;20033;-90
2022/06/07 02:54:27;;;;;;;19.65;14.13;;;13.70;96.90;;;;;;2090493;28;20072;-90
2022/06/07 02:55:46;;;;;;;19.30;14.80;;;13.70;97.00;;;;;;2082836;28;20041;-90
2022/06/07 02:57:06;;;;;;;18.38;14.73;;;13.70;97.00;;;;;;2082923;28;20064;-90
2022/06/07 02:58:25;;;;;;;17.95;13.98;;;13.70;97.00;;;;;;2074565;28;20475;-90
2022/06/07 02:59:44;;;;;;;17.90;13.82;;;13.70;97.00;;;;;;2079286;28;20491;-90
2022/06/07 03:01:04;;;;;;;17.80;13.40;;;13.70;97.00;;;;;;2090079;28;20119;-88
2022/06/07 03:02:23;;;;;;;18.40;13.75;;;13.70;97.00;;;;;;2066369;28;20038;-90
2022/06/07 03:03:42;;;;;;;18.83;14.43;;;13.70;97.20;;;;;;2068224;28;20030;-90
2022/06/07 03:05:03;;;;;;;17.02;13.48;;;13.70;97.00;;;;;;2078454;28;20049;-90
2022/06/07 03:06:22;;;;;;;17.20;13.05;;;13.70;97.00;;;;;;2090038;28;20037;-90
2022/06/07 03:07:42;;;;;;;18.90;13.85;;;13.70;97.00;;;;;;2082942;28;20033;-90
2022/06/07 03:09:01;;;;;;;18.33;13.05;;;13.70;97.00;;;;;;2078425;28;20046;-90
2022/06/07 03:10:20;;;;;;;18.00;13.55;;;13.70;97.00;;;;;;2087767;28;20495;-88
2022/06/07 03:11:39;;;;;;;17.90;13.13;;;13.70;97.00;;;;;;2073907;28;20026;-90
2022/06/07 03:12:58;;;;;;;17.85;13.80;;;13.60;97.00;;;;;;2076268;28;20029;-89
2022/06/07 03:14:18;;;;;;;21.75;14.75;;;13.70;97.00;;;;;;2079389;28;20042;-90
2022/06/07 03:15:37;;;;;;;17.70;13.35;;;13.70;97.00;;;;;;2076144;28;20492;-90
2022/06/07 03:16:56;;;;;;;19.00;13.90;;;13.70;97.00;;;;;;2079593;28;20026;-90
2022/06/07 03:18:16;;;;;;;17.83;14.07;;;13.70;97.00;;;;;;2074846;28;20045;-90
2022/06/07 03:19:35;;;;;;;17.60;14.00;;;13.70;97.00;;;;;;2063287;28;20030;-90
2022/06/07 03:20:54;;;;;;;17.25;13.98;;;13.60;97.00;;;;;;2073104;28;20116;-89
2022/06/07 03:22:14;;;;;;;18.75;13.55;;;13.70;97.00;;;;;;2079053;28;20069;-90
2022/06/07 03:23:33;;;;;;;18.60;13.68;;;13.70;97.00;;;;;;2074709;28;20038;-90
2022/06/07 03:24:52;;;;;;;17.10;14.20;;;13.70;97.00;;;;;;2062350;28;20030;-91
2022/06/07 03:26:13;;;;;;;23.45;16.65;;;13.70;97.00;;;;;;2056884;28;20492;-90
2022/06/07 03:27:35;;;;;;;18.13;14.43;;;13.60;97.00;;;;;;2075537;28;20025;-90
2022/06/07 03:28:54;;;;;;;18.83;14.63;;;13.60;97.00;;;;;;2079175;28;20038;-90
2022/06/07 03:30:14;;;;;;;21.05;15.00;;;13.60;97.00;;;;;;2087274;28;20020;-90
2022/06/07 03:31:34;;;;;;;18.98;14.25;;;13.60;97.10;;;;;;2082895;28;20041;-90
2022/06/07 03:32:53;;;;;;;16.83;13.40;;;13.60;97.00;;;;;;2074787;28;20559;-90
2022/06/07 03:34:12;;;;;;;19.17;14.80;;;13.60;97.00;;;;;;2071791;28;20460;-90
2022/06/07 03:35:32;;;;;;;19.95;14.60;;;13.60;97.00;;;;;;2072393;28;20042;-91
2022/06/07 03:36:51;;;;;;;18.38;14.38;;;13.60;97.00;;;;;;2079573;28;20567;-90
2022/06/07 03:38:10;;;;;;;18.15;13.13;;;13.60;97.00;;;;;;2087546;28;20041;-89
2022/06/07 03:39:30;;;;;;;17.95;14.20;;;13.70;97.10;;;;;;2074104;28;20132;-90
2022/06/07 03:40:49;;;;;;;16.25;13.15;;;13.60;97.00;;;;;;2077553;28;20034;-90
2022/06/07 03:42:09;;;;;;;19.95;14.35;;;13.60;97.10;;;;;;2082083;28;20038;-90
2022/06/07 03:43:28;;;;;;;18.77;14.98;;;13.60;97.10;;;;;;2074992;28;20352;-90
2022/06/07 03:44:50;;;;;;;17.15;14.43;;;13.60;97.10;;;;;;2079166;28;20041;-90
2022/06/07 03:46:13;;;;;;;17.73;14.73;;;13.70;97.10;;;;;;2077635;28;20029;-90
2022/06/07 03:47:34;;;;;;;17.13;13.63;;;13.70;97.10;;;;;;2079813;28;20108;-90
2022/06/07 03:48:54;;;;;;;16.75;13.88;;;13.60;97.10;;;;;;2079280;28;20088;-90
2022/06/07 03:50:13;;;;;;;18.27;12.80;;;13.70;97.10;;;;;;2087233;28;20493;-90
2022/06/07 03:51:33;;;;;;;18.80;13.85;;;13.60;97.00;;;;;;2070100;28;20025;-90
2022/06/07 03:52:52;;;;;;;17.50;13.55;;;13.60;97.00;;;;;;2080389;28;20115;-90
2022/06/07 03:54:11;;;;;;;15.45;13.05;;;13.60;97.00;;;;;;2075177;28;20077;-90
2022/06/07 03:55:30;;;;;;;15.23;12.93;;;13.60;97.00;;;;;;2085199;28;20053;-90
2022/06/07 03:56:50;;;;;;;14.77;12.52;;;13.60;97.00;;;;;;2085555;28;20053;-91
2022/06/07 03:58:10;;;;;;;15.38;12.25;;;13.60;97.10;;;;;;2074605;28;20033;-90
2022/06/07 03:59:30;;;;;;;16.15;12.45;;;13.60;97.10;;;;;;2081679;28;20022;-90
2022/06/07 04:00:49;;;;;;;14.00;12.13;;;13.60;97.10;;;;;;2077276;28;20057;-91
2022/06/07 04:02:09;;;;;;;14.07;11.23;;;13.60;97.10;;;;;;2079756;28;20029;-90
2022/06/07 04:03:29;;;;;;;15.18;12.07;;;13.60;97.30;;;;;;2082444;28;20040;-91
2022/06/07 04:04:48;;;;;;;13.88;12.10;;;13.60;97.10;;;;;;2083792;28;20045;-90
2022/06/07 04:06:07;;;;;;;14.82;12.52;;;13.60;97.10;;;;;;2078070;28;20029;-90
2022/06/07 04:09:04;;;;;;;13.77;11.82;;;13.60;97.10;;;;;;2081624;28;20065;-90
2022/06/07 04:10:23;;;;;;;15.32;11.98;;;13.60;97.10;;;;;;2085147;28;20028;-90
2022/06/07 04:11:43;;;;;;;15.00;12.05;;;13.60;97.10;;;;;;2071280;28;20033;-91
2022/06/07 04:13:03;;;;;;;14.38;12.27;;;13.60;97.10;;;;;;2076028;28;20037;-90
2022/06/07 04:14:22;;;;;;;15.15;12.30;;;13.60;97.00;;;;;;2086959;28;20423;-90
2022/06/07 04:15:42;;;;;;;15.57;12.20;;;13.60;97.00;;;;;;2089618;28;20072;-90
2022/06/07 04:17:01;;;;;;;12.88;11.07;;;13.60;97.00;;;;;;2087505;28;20037;-90
2022/06/07 04:18:21;;;;;;;15.45;11.82;;;13.60;97.10;;;;;;2077075;28;20037;-90
2022/06/07 04:19:41;;;;;;;13.52;11.25;;;13.60;97.10;;;;;;2079059;28;20037;-90
2022/06/07 04:21:01;;;;;;;16.77;12.10;;;13.70;97.10;;;;;;2098653;28;20032;-90
2022/06/07 04:22:20;;;;;;;14.68;11.52;;;13.60;97.00;;;;;;2092569;28;20033;-91
2022/06/07 04:23:40;;;;;;;15.15;11.68;;;13.70;97.10;;;;;;2095029;28;20044;-90
2022/06/07 04:25:00;;;;;;;14.38;10.98;;;13.70;97.10;;;;;;2088917;28;20029;-90
2022/06/07 04:26:22;;;;;;;14.77;12.00;;;13.70;97.10;;;;;;2095883;28;20047;-90
2022/06/07 04:27:42;;;;;;;13.82;11.20;;;13.60;97.00;;;;;;2098431;28;20028;-91
2022/06/07 04:29:01;;;;;;;14.80;11.70;;;13.70;97.00;;;;;;2087386;28;20045;-91
2022/06/07 04:30:20;;;;;;;13.00;11.25;;;13.70;97.00;;;;;;2081976;28;20029;-90
2022/06/07 04:31:39;;;;;;;14.48;11.95;;;13.70;97.00;;;;;;2096080;28;20036;-91
2022/06/07 04:32:58;;;;;;;13.27;11.27;;;13.70;97.30;;;;;;2090092;28;20037;-90
2022/06/07 04:34:19;;;;;;;16.02;12.27;;;13.80;97.00;;;;;;2090281;28;20123;-90
2022/06/07 04:35:38;;;;;;;15.32;11.60;;;13.80;97.00;;;;;;2086065;28;20112;-91
2022/06/07 04:36:57;;;;;;;15.52;11.55;;;13.80;97.00;;;;;;2087709;28;20398;-91
2022/06/07 04:38:17;;;;;;;15.23;11.75;;;13.80;97.00;;;;;;2091977;28;20092;-91
2022/06/07 04:39:36;;;;;;;15.73;12.05;;;13.80;97.00;;;;;;2086843;28;20021;-91
2022/06/07 04:40:55;;;;;;;16.13;11.75;;;13.80;97.00;;;;;;2090588;28;20045;-91
2022/06/07 04:42:14;;;;;;;14.93;12.40;;;13.80;96.90;;;;;;2087904;28;20029;-91
2022/06/07 04:43:33;;;;;;;15.50;11.68;;;13.80;97.00;;;;;;2081313;28;20499;-91
2022/06/07 04:44:52;;;;;;;16.75;11.80;;;13.80;97.00;;;;;;2080460;28;20045;-90
2022/06/07 04:46:15;;;;;;;15.70;12.15;;;13.80;97.00;;;;;;2078061;28;20045;-90
2022/06/07 04:47:36;;;;;;;15.75;11.98;;;13.80;97.00;;;;;;2086519;28;20033;-91
2022/06/07 04:48:56;;;;;;;15.20;11.45;;;13.80;96.90;;;;;;2078414;28;20045;-90
2022/06/07 04:50:17;;;;;;;13.68;11.07;;;13.80;96.90;;;;;;2073827;28;20109;-90
2022/06/07 04:51:38;;;;;;;14.27;10.82;;;13.90;96.90;;;;;;2084133;28;20123;-91
2022/06/07 04:52:57;;;;;;;15.55;11.60;;;13.90;96.90;;;;;;2092195;28;20029;-91
2022/06/07 04:54:16;;;;;;;14.77;10.63;;;13.90;96.90;;;;;;2087361;28;20488;-91
2022/06/07 04:55:37;;;;;;;14.20;11.60;;;13.90;96.90;;;;;;2086959;28;20117;-91
2022/06/07 04:56:57;;;;;;;14.50;11.98;;;13.90;96.90;;;;;;2086826;28;20033;-91
2022/06/07 04:58:16;;;;;;;17.00;13.10;;;13.90;96.90;;;;;;2073122;28;20037;-92
2022/06/07 04:59:36;;;;;;;15.85;12.70;;;13.90;96.80;;;;;;2086672;28;20424;-91
2022/06/07 05:00:55;;;;;;;16.77;13.05;;;13.90;96.80;;;;;;2077767;28;20518;-88
2022/06/07 05:02:14;;;;;;;17.98;13.05;;;13.90;96.80;;;;;;2081336;28;20033;-90
2022/06/07 05:03:33;;;;;;;15.80;13.40;;;13.90;96.80;;;;;;2078164;28;20521;-91
2022/06/07 05:04:53;;;;;;;15.10;13.13;;;14.00;96.80;;;;;;2076511;28;20053;-91
2022/06/07 05:06:33;;;;;;;18.92;14.30;;;14.00;96.80;;;;;;2078749;28;20485;-91
2022/06/07 05:07:52;;;;;;;16.88;13.45;;;14.00;96.80;;;;;;2091479;28;20523;-93
2022/06/07 05:09:17;;;;;;;17.20;13.07;;;13.90;96.80;;;;;;2089634;28;20037;-92
2022/06/07 05:10:39;;;;;;;14.60;12.45;;;14.00;96.80;;;;;;2086940;28;20016;-92
2022/06/07 05:11:59;;;;;;;17.45;12.90;;;14.00;96.80;;;;;;2085244;28;20025;-90
2022/06/07 05:13:17;;;;;;;15.48;13.07;;;14.00;96.80;;;;;;2085661;28;20500;-92
2022/06/07 05:14:37;;;;;;;17.45;13.27;;;13.90;96.80;;;;;;2073156;28;20045;-92
2022/06/07 05:15:56;;;;;;;16.73;13.00;;;13.90;96.80;;;;;;2079356;28;20049;-92
2022/06/07 05:17:16;;;;;;;17.35;13.40;;;13.90;96.80;;;;;;2085488;28;20041;-92
2022/06/07 05:18:36;;;;;;;16.40;13.45;;;14.00;96.80;;;;;;2098353;28;20028;-91
2022/06/07 05:19:55;;;;;;;15.95;12.85;;;13.90;96.80;;;;;;2099463;28;20491;-92
2022/06/07 05:21:15;;;;;;;15.63;12.93;;;13.90;96.80;;;;;;2085066;28;20068;-92
2022/06/07 05:22:34;;;;;;;15.82;12.88;;;13.90;96.80;;;;;;2088419;28;20025;-91
2022/06/07 05:23:54;;;;;;;14.85;11.82;;;13.90;97.10;;;;;;2076147;28;20128;-93
2022/06/07 05:25:13;;;;;;;13.38;11.90;;;13.90;96.80;;;;;;2074764;28;20034;-91
2022/06/07 05:26:39;;;;;;;15.80;12.25;;;13.90;96.80;;;;;;2078552;28;20037;-92
2022/06/07 05:27:58;;;;;;;15.23;11.73;;;13.90;96.80;;;;;;2088857;28;20052;-92
2022/06/07 05:29:26;;;;;;;14.40;11.90;;;13.90;96.80;;;;;;2092972;28;20036;-90
2022/06/07 05:30:46;;;;;;;13.65;11.73;;;13.90;96.80;;;;;;2087240;28;20029;-90
2022/06/07 05:32:06;;;;;;;15.40;12.25;;;13.90;96.80;;;;;;2080427;28;20504;-91
2022/06/07 05:33:25;;;;;;;14.23;12.18;;;13.90;96.80;;;;;;2094543;28;20033;-93
2022/06/07 05:34:45;;;;;;;14.82;12.13;;;13.90;96.80;;;;;;2091694;28;20123;-96
2022/06/07 05:36:05;;;;;;;16.17;12.20;;;14.00;97.10;;;;;;2087930;28;20396;-93
2022/06/07 05:37:24;;;;;;;16.23;13.63;;;14.00;96.80;;;;;;2070745;28;20098;-92
2022/06/07 05:38:43;;;;;;;14.88;11.98;;;14.00;96.80;;;;;;2081869;28;20119;-92
2022/06/07 05:40:04;;;;;;;16.42;12.52;;;14.00;96.80;;;;;;2088380;28;20045;-92
2022/06/07 05:41:26;;;;;;;15.05;11.95;;;14.00;96.80;;;;;;2082278;28;20033;-91
2022/06/07 05:42:45;;;;;;;14.70;11.68;;;14.00;96.80;;;;;;2088056;28;20069;-91
2022/06/07 05:44:06;;;;;;;15.50;12.55;;;14.00;96.80;;;;;;2095484;28;20033;-92
2022/06/07 05:45:25;;;;;;;14.98;12.20;;;14.10;96.70;;;;;;2094891;28;20454;-93
2022/06/07 05:46:45;;;;;;;14.75;12.43;;;14.10;96.70;;;;;;2082137;28;20090;-89
2022/06/07 05:48:06;;;;;;;14.70;12.23;;;14.10;96.70;;;;;;2091628;28;20032;-92
2022/06/07 05:49:25;;;;;;;15.88;12.80;;;14.10;96.70;;;;;;2083424;28;20279;-92
2022/06/07 05:50:48;;;;;;;15.77;13.13;;;14.10;96.60;;;;;;2082297;28;20034;-91
2022/06/07 05:52:08;;;;;;;15.98;13.30;;;14.10;96.60;;;;;;2089951;28;20037;-92
2022/06/07 05:53:27;;;;;;;15.60;12.47;;;14.10;96.60;;;;;;2079684;28;20033;-91
2022/06/07 05:54:47;;;;;;;15.52;12.45;;;14.10;96.60;;;;;;2085011;28;20317;-90
2022/06/07 05:56:14;;;;;;;14.55;12.60;;;14.10;96.60;;;;;;2080282;28;20037;-89
2022/06/07 05:57:34;;;;;;;13.90;11.77;;;14.20;96.60;;;;;;2082426;28;20045;-91
2022/06/07 05:58:53;;;;;;;15.13;12.80;;;14.10;96.60;;;;;;2081181;28;20029;-91
2022/06/07 06:00:13;;;;;;;14.57;11.75;;;14.10;96.60;;;;;;2080918;28;20110;-90
2022/06/07 06:01:33;;;;;;;13.02;11.52;;;14.10;96.60;;;;;;2077878;28;20432;-90
2022/06/07 06:02:53;;;;;;;;;;;14.10;96.60;;;;;;2094110;28;20115;-90
2022/06/07 06:04:12;;;;;;;13.82;10.45;;;14.20;96.60;;;;;;2098132;28;19908;-90
2022/06/07 06:05:33;;;;;;;14.65;11.45;;;14.20;96.60;;;;;;2083477;28;20108;-91
2022/06/07 06:06:57;;;;;;;13.82;10.82;;;14.20;96.60;;;;;;2085924;28;20534;-91
2022/06/07 06:11:33;;;;;;;13.77;10.40;;;14.20;96.50;;;;;;2074033;28;20046;-94
2022/06/07 06:12:52;;;;;;;14.10;11.45;;;14.20;96.50;;;;;;2083607;28;20025;-90
2022/06/07 06:14:11;;;;;;;14.48;12.07;;;14.20;96.50;;;;;;2066340;28;20121;-91
2022/06/07 06:15:31;;;;;;;14.35;11.90;;;14.20;96.50;;;;;;2079039;28;20064;-91
2022/06/07 06:16:52;;;;;;;13.88;11.10;;;14.20;96.50;;;;;;2088827;28;20033;-91
2022/06/07 06:18:11;;;;;;;13.25;11.50;;;14.20;96.50;;;;;;2080383;28;20045;-91
2022/06/07 06:19:31;;;;;;;12.73;10.82;;;14.30;96.50;;;;;;2077117;28;20053;-91
2022/06/07 06:20:53;;;;;;;13.20;11.05;;;14.20;96.50;;;;;;2078770;28;20424;-89
2022/06/07 06:22:13;;;;;;;13.85;11.27;;;14.30;96.50;;;;;;2076625;28;20052;-89
2022/06/07 06:23:33;;;;;;;15.27;12.10;;;14.20;96.50;;;;;;2086918;28;20038;-90
2022/06/07 06:24:52;;;;;;;14.25;11.20;;;14.30;96.50;;;;;;2087628;28;20037;-90
2022/06/07 06:26:14;;;;;;;14.93;11.98;;;14.30;96.50;;;;;;2077252;28;20379;-90
2022/06/07 06:27:34;;;;;;;15.50;12.23;;;14.30;96.50;;;;;;2085566;28;20025;-91
2022/06/07 06:28:54;;;;;;;15.23;12.05;;;14.30;96.50;;;;;;2088153;28;20068;-89
2022/06/07 06:30:14;;;;;;;14.15;11.82;;;14.30;96.40;;;;;;2083559;28;20030;-90
2022/06/07 06:31:34;;;;;;;16.27;12.38;;;14.30;96.40;;;;;;2078905;28;20037;-89
2022/06/07 06:32:54;;;;;;;13.77;10.77;;;14.30;96.40;;;;;;2074712;28;20030;-90
2022/06/07 06:34:13;;;;;;;17.25;12.75;;;14.30;96.40;;;;;;2072714;28;20042;-91
2022/06/07 06:35:33;;;;;;;16.15;11.30;;;14.30;96.40;;;;;;2083496;28;20033;-90
2022/06/07 06:36:52;;;;;;;15.23;12.05;;;14.30;96.40;;;;;;2074511;28;20556;-90
2022/06/07 06:38:11;;;;;;;13.27;10.80;;;14.30;96.40;;;;;;2077641;28;20487;-91
2022/06/07 06:39:31;;;;;;;15.30;11.55;;;14.30;96.40;;;;;;2071961;28;20462;-90
2022/06/07 06:40:51;;;;;;;13.98;10.88;;;14.30;96.40;;;;;;2074716;28;20033;-91
2022/06/07 06:42:10;;;;;;;16.70;12.35;;;14.40;96.40;;;;;;2078580;28;20042;-92
2022/06/07 06:43:30;;;;;;;14.70;12.23;;;14.40;96.40;;;;;;2073299;28;20056;-90
2022/06/07 06:44:49;;;;;;;14.00;11.88;;;14.40;96.30;;;;;;2072299;28;20045;-91
2022/06/07 06:46:16;;;;;;;14.25;11.13;;;14.40;96.30;;;;;;2066881;28;20121;-92
2022/06/07 06:47:36;;;;;;;15.00;11.02;;;14.50;96.30;;;;;;2079991;28;20559;-92
2022/06/07 06:48:56;;;;;;;15.52;12.32;;;14.50;96.30;;;;;;2070658;28;20046;-92
2022/06/07 06:50:15;;;;;;;14.25;10.93;;;14.50;96.20;;;;;;2083695;28;20034;-91
2022/06/07 06:51:35;;;;;;;14.38;11.05;;;14.60;96.20;;;;;;2083701;28;20511;-95
2022/06/07 06:52:55;;;;;;;15.40;10.93;;;14.60;96.20;;;;;;2075508;28;20500;-94
2022/06/07 06:54:16;;;;;;;14.57;10.48;;;14.70;96.10;;;;;;2085101;28;20096;-94
2022/06/07 06:55:35;;;;;;;15.43;12.07;;;14.80;96.10;;;;;;2091211;28;20220;-95
2022/06/07 06:56:56;;;;;;;13.60;10.80;;;14.80;96.00;;;;;;2084245;28;20038;-93
2022/06/07 06:58:15;;;;;;;13.40;11.60;;;14.90;95.90;;;;;;2078549;28;20041;-92
2022/06/07 06:59:34;;;;;;;13.10;10.27;;;14.90;95.90;;;;;;2067441;28;20037;-93
2022/06/07 07:01:01;;;;;;;15.23;10.65;;;15.00;95.80;;;;;;2066610;28;20049;-94